createdAt,value
2018-01-11T00:00:02.329Z,6.63
2018-01-11T00:02:30.573Z,7.80
2018-01-11T00:04:58.082Z,7.77
2018-01-11T00:07:25.594Z,6.97
2018-01-11T00:09:53.077Z,8.53
2018-01-11T00:12:21.341Z,8.40
2018-01-11T00:14:48.822Z,7.40
2018-01-11T00:17:16.393Z,9.33
2018-01-11T00:19:44.618Z,9.07
2018-01-11T00:22:12.126Z,9.23
2018-01-11T00:24:39.643Z,9.60
2018-01-11T00:27:07.130Z,10.83
2018-01-11T00:29:35.432Z,12.40
2018-01-11T00:32:02.926Z,9.13
2018-01-11T00:34:30.411Z,11.60
2018-01-11T00:36:58.690Z,9.43
2018-01-11T00:39:26.949Z,10.93
2018-01-11T00:41:54.478Z,9.83
2018-01-11T00:44:21.958Z,9.80
2018-01-11T00:46:49.457Z,10.17
2018-01-11T00:49:17.733Z,10.73
2018-01-11T00:51:45.989Z,13.40
2018-01-11T00:54:13.504Z,10.20
2018-01-11T00:56:40.994Z,9.80
2018-01-11T00:59:08.476Z,9.90
2018-01-11T01:01:36.750Z,15.53
2018-01-11T01:04:05.002Z,10.70
2018-01-11T01:06:32.517Z,11.77
2018-01-11T01:09:00.011Z,12.40
2018-01-11T01:11:27.509Z,10.57
2018-01-11T01:13:55.778Z,10.90
2018-01-11T01:16:24.047Z,10.10
2018-01-11T01:18:51.579Z,10.80
2018-01-11T01:21:19.070Z,10.87
2018-01-11T01:23:47.333Z,11.27
2018-01-11T01:26:14.842Z,10.97
2018-01-11T01:28:42.338Z,11.43
2018-01-11T01:31:09.849Z,11.40
2018-01-11T01:33:37.364Z,11.30
2018-01-11T01:36:04.850Z,10.70
2018-01-11T01:38:33.114Z,10.83
2018-01-11T01:41:01.407Z,10.50
2018-01-11T01:43:29.681Z,11.20
2018-01-11T01:45:57.941Z,11.17
2018-01-11T01:48:38.006Z,11.80
2018-01-11T01:51:06.262Z,12.00
2018-01-11T01:53:33.753Z,12.33
2018-01-11T01:56:02.028Z,14.00
2018-01-11T01:58:30.293Z,11.60
2018-01-11T02:00:58.573Z,11.90
2018-01-11T02:03:26.840Z,12.27
2018-01-11T02:05:55.101Z,13.30
2018-01-11T02:08:22.614Z,13.03
2018-01-11T02:10:50.114Z,12.30
2018-01-11T02:13:17.627Z,10.97
2018-01-11T02:15:45.125Z,13.07
2018-01-11T02:18:12.613Z,12.77
2018-01-11T02:20:40.916Z,13.80
2018-01-11T02:23:08.409Z,15.97
2018-01-11T02:25:35.918Z,12.60
2018-01-11T02:28:04.182Z,13.63
2018-01-11T02:30:32.445Z,12.90
2018-01-11T02:32:59.948Z,13.83
2018-01-11T02:35:27.458Z,14.70
2018-01-11T02:37:54.977Z,13.13
2018-01-11T02:40:22.470Z,14.20
2018-01-11T02:42:49.973Z,13.57
2018-01-11T02:45:17.482Z,13.63
2018-01-11T02:47:44.974Z,11.90
2018-01-11T02:50:12.493Z,13.50
2018-01-11T02:52:39.992Z,12.43
2018-01-11T02:55:08.257Z,14.30
2018-01-11T02:57:35.762Z,13.07
2018-01-11T03:00:03.270Z,13.93
2018-01-11T03:02:30.788Z,13.17
2018-01-11T03:04:58.278Z,16.70
2018-01-11T03:07:25.774Z,12.03
2018-01-11T03:09:54.042Z,12.60
2018-01-11T03:12:22.306Z,15.27
2018-01-11T03:14:49.818Z,13.07
2018-01-11T03:17:17.313Z,12.30
2018-01-11T03:19:44.805Z,12.87
2018-01-11T03:22:13.077Z,11.70
2018-01-11T03:24:41.333Z,13.27
2018-01-11T03:27:08.849Z,11.87
2018-01-11T03:29:36.343Z,11.83
2018-01-11T03:32:03.838Z,11.63
2018-01-11T03:34:31.350Z,12.70
2018-01-11T03:36:58.850Z,10.77
2018-01-11T03:39:26.367Z,10.37
2018-01-11T03:41:53.866Z,10.80
2018-01-11T03:44:22.125Z,10.87
2018-01-11T03:46:50.397Z,10.57
2018-01-11T03:49:17.894Z,12.17
2018-01-11T03:51:45.414Z,11.37
2018-01-11T03:54:12.913Z,11.73
2018-01-11T03:56:40.413Z,11.10
2018-01-11T03:59:07.926Z,12.43
2018-01-11T04:01:35.420Z,10.80
2018-01-11T04:04:02.934Z,12.20
2018-01-11T04:06:30.428Z,10.67
2018-01-11T04:08:57.925Z,11.13
2018-01-11T04:11:25.431Z,11.77
2018-01-11T04:13:52.925Z,11.23
2018-01-11T04:16:20.433Z,11.07
2018-01-11T04:18:47.925Z,11.87
2018-01-11T04:21:15.426Z,12.93
2018-01-11T04:23:43.693Z,11.80
2018-01-11T04:26:11.182Z,12.60
2018-01-11T04:28:38.693Z,11.47
2018-01-11T04:31:06.181Z,10.47
2018-01-11T04:33:34.441Z,11.90
2018-01-11T04:36:01.951Z,11.30
2018-01-11T04:38:29.457Z,11.80
2018-01-11T04:40:56.973Z,12.03
2018-01-11T04:43:24.466Z,12.33
2018-01-11T04:45:51.966Z,12.17
2018-01-11T04:48:19.478Z,12.77
2018-01-11T04:50:46.966Z,12.37
2018-01-11T04:53:15.250Z,12.53
2018-01-11T04:55:43.522Z,12.00
2018-01-11T04:58:11.773Z,13.27
2018-01-11T05:00:44.986Z,13.83
2018-01-11T05:03:13.254Z,14.33
2018-01-11T05:05:41.557Z,13.47
2018-01-11T05:08:09.054Z,15.40
2018-01-11T05:10:36.562Z,13.77
2018-01-11T05:13:04.844Z,14.63
2018-01-11T05:15:33.113Z,14.70
2018-01-11T05:18:01.393Z,14.17
2018-01-11T05:20:29.650Z,14.60
2018-01-11T05:22:57.142Z,14.57
2018-01-11T05:25:25.422Z,14.87
2018-01-11T05:27:52.912Z,13.83
2018-01-11T05:30:20.418Z,16.20
2018-01-11T05:32:48.678Z,16.20
2018-01-11T05:35:16.186Z,16.37
2018-01-11T05:37:43.687Z,16.57
2018-01-11T05:40:11.177Z,15.50
2018-01-11T05:42:39.453Z,17.00
2018-01-11T05:45:07.721Z,15.00
2018-01-11T05:47:35.979Z,15.50
2018-01-11T05:50:03.498Z,17.60
2018-01-11T05:52:30.993Z,19.10
2018-01-11T05:54:58.510Z,16.67
2018-01-11T05:57:26.006Z,20.70
2018-01-11T05:59:53.497Z,18.60
2018-01-11T06:02:21.790Z,16.53
2018-01-11T06:04:49.293Z,16.10
2018-01-11T06:07:16.820Z,16.07
2018-01-11T06:09:44.326Z,16.93
2018-01-11T06:12:11.821Z,17.03
2018-01-11T06:14:39.335Z,16.67
2018-01-11T06:17:06.844Z,18.30
2018-01-11T06:19:34.358Z,18.20
2018-01-11T06:22:01.858Z,17.20
2018-01-11T06:24:29.373Z,16.80
2018-01-11T06:26:56.887Z,20.53
2018-01-11T06:29:24.380Z,16.90
2018-01-11T06:31:51.921Z,16.00
2018-01-11T06:34:19.409Z,18.70
2018-01-11T06:36:46.893Z,18.50
2018-01-11T06:39:15.170Z,16.63
2018-01-11T06:41:43.430Z,16.20
2018-01-11T06:44:10.945Z,16.77
2018-01-11T06:46:38.437Z,20.93
2018-01-11T06:49:05.929Z,17.17
2018-01-11T06:51:34.207Z,16.97
2018-01-11T06:54:02.474Z,20.77
2018-01-11T06:56:30.753Z,17.87
2018-01-11T06:58:59.013Z,17.77
2018-01-11T07:01:26.512Z,17.50
2018-01-11T07:03:54.022Z,17.43
2018-01-11T07:06:21.540Z,18.50
2018-01-11T07:08:49.039Z,16.97
2018-01-11T07:11:16.557Z,17.33
2018-01-11T07:13:44.050Z,15.63
2018-01-11T07:16:11.542Z,17.30
2018-01-11T07:18:39.813Z,17.53
2018-01-11T07:21:07.310Z,18.20
2018-01-11T07:23:34.803Z,18.13
2018-01-11T07:26:02.322Z,17.57
2018-01-11T07:28:29.825Z,18.17
2018-01-11T07:30:57.353Z,17.43
2018-01-11T07:33:24.873Z,22.17
2018-01-11T07:35:53.127Z,17.57
2018-01-11T07:38:20.620Z,16.10
2018-01-11T07:40:48.913Z,16.53
2018-01-11T07:43:16.426Z,16.97
2018-01-11T07:45:43.918Z,16.80
2018-01-11T07:48:11.430Z,17.43
2018-01-11T07:50:38.955Z,18.63
2018-01-11T07:53:06.453Z,17.13
2018-01-11T07:55:33.972Z,17.33
2018-01-11T07:58:01.477Z,16.27
2018-01-11T08:00:28.987Z,18.80
2018-01-11T08:02:56.498Z,21.43
2018-01-11T08:05:23.989Z,17.67
2018-01-11T08:07:51.493Z,17.20
2018-01-11T08:10:19.016Z,17.23
2018-01-11T08:12:46.518Z,18.70
2018-01-11T08:15:14.010Z,16.77
2018-01-11T08:17:42.328Z,17.07
2018-01-11T08:20:09.841Z,17.00
2018-01-11T08:22:37.437Z,15.10
2018-01-11T08:25:04.949Z,17.17
2018-01-11T08:27:32.449Z,16.20
2018-01-11T08:29:59.940Z,15.40
2018-01-11T08:32:27.454Z,14.87
2018-01-11T08:34:55.714Z,16.40
2018-01-11T08:37:23.970Z,14.70
2018-01-11T08:39:51.494Z,17.07
2018-01-11T08:42:18.990Z,16.73
2018-01-11T08:44:46.483Z,15.27
2018-01-11T08:47:14.762Z,15.63
2018-01-11T08:49:42.249Z,15.83
2018-01-11T08:52:09.756Z,15.70
2018-01-11T08:54:38.044Z,17.77
2018-01-11T08:57:06.310Z,17.00
2018-01-11T08:59:34.573Z,16.23
2018-01-11T09:02:02.094Z,16.77
2018-01-11T09:04:29.585Z,35.73
2018-01-11T09:06:57.073Z,15.87
2018-01-11T09:09:25.350Z,16.10
2018-01-11T09:11:52.846Z,31.93
2018-01-11T09:14:20.349Z,17.90
2018-01-11T09:16:47.866Z,15.77
2018-01-11T09:19:15.353Z,15.70
2018-01-11T09:21:42.845Z,18.23
2018-01-11T09:24:11.135Z,16.73
2018-01-11T09:26:38.627Z,16.33
2018-01-11T09:29:06.127Z,21.17
2018-01-11T09:31:34.419Z,16.60
2018-01-11T09:34:01.914Z,16.97
2018-01-11T09:36:29.406Z,18.07
2018-01-11T09:38:56.918Z,17.57
2018-01-11T09:41:24.430Z,15.30
2018-01-11T09:43:51.930Z,15.77
2018-01-11T09:46:19.453Z,16.93
2018-01-11T09:48:46.949Z,15.80
2018-01-11T09:51:14.446Z,24.33
2018-01-11T09:53:41.962Z,16.30
2018-01-11T09:56:09.447Z,17.40
2018-01-11T09:58:36.954Z,16.07
2018-01-11T10:01:05.236Z,33.83
2018-01-11T10:03:33.499Z,16.93
2018-01-11T10:06:00.999Z,19.83
2018-01-11T10:08:28.529Z,15.93
2018-01-11T10:10:56.801Z,17.03
2018-01-11T10:13:25.070Z,16.57
2018-01-11T10:15:52.582Z,15.47
2018-01-11T10:18:20.070Z,14.97
2018-01-11T10:20:47.566Z,15.90
2018-01-11T10:23:15.846Z,17.53
2018-01-11T10:25:44.106Z,17.20
2018-01-11T10:28:12.373Z,17.13
2018-01-11T10:30:39.890Z,15.83
2018-01-11T10:33:07.385Z,16.53
2018-01-11T10:35:34.873Z,15.00
2018-01-11T10:38:03.154Z,18.83
2018-01-11T10:40:30.648Z,17.60
2018-01-11T10:56:24.654Z,16.47
2018-01-11T10:58:52.155Z,16.90
2018-01-11T11:01:25.418Z,16.07
2018-01-11T11:03:53.685Z,15.47
2018-01-11T11:06:21.976Z,15.63
2018-01-11T11:08:50.266Z,17.33
2018-01-11T11:11:17.761Z,15.43
2018-01-11T11:13:45.266Z,15.43
2018-01-11T11:16:13.575Z,16.43
2018-01-11T11:18:41.093Z,12.67
2018-01-11T11:21:09.363Z,13.23
2018-01-11T11:23:38.389Z,11.80
2018-01-11T11:26:05.895Z,13.90
2018-01-11T11:28:33.391Z,15.60
2018-01-11T11:31:01.672Z,13.60
2018-01-11T11:33:29.941Z,14.77
2018-01-11T11:35:58.201Z,12.47
2018-01-11T11:38:25.721Z,14.80
2018-01-11T11:40:53.216Z,12.90
2018-01-11T11:43:20.719Z,13.87
2018-01-11T11:45:48.246Z,14.60
2018-01-11T11:48:15.754Z,13.43
2018-01-11T11:50:43.275Z,17.90
2018-01-11T11:53:11.567Z,12.07
2018-01-11T11:55:39.091Z,9.47
2018-01-11T11:58:06.589Z,12.10
2018-01-11T12:00:34.109Z,11.43
2018-01-11T12:03:01.622Z,13.43
2018-01-11T12:05:29.114Z,18.63
2018-01-11T12:07:56.626Z,10.27
2018-01-11T12:10:24.133Z,11.43
2018-01-11T12:12:51.634Z,12.50
2018-01-11T12:15:19.916Z,11.23
2018-01-11T12:17:47.440Z,15.13
2018-01-11T12:20:14.943Z,12.00
2018-01-11T12:22:42.483Z,13.83
2018-01-11T12:25:10.754Z,11.27
2018-01-11T21:02:25.313Z,51.63
2018-01-11T21:04:52.837Z,52.47
2018-01-11T21:07:20.343Z,58.50
2018-01-11T21:09:47.869Z,52.10
2018-01-11T21:12:15.529Z,59.87
2018-01-11T21:14:43.084Z,57.43
2018-01-11T21:17:10.651Z,51.90
2018-01-11T21:19:38.141Z,55.87
2018-01-11T21:22:05.633Z,54.63
2018-01-11T21:24:33.953Z,62.20
2018-01-11T21:27:01.479Z,58.00
2018-01-11T21:29:28.993Z,49.40
2018-01-11T21:31:56.545Z,52.87
2018-01-11T21:34:24.010Z,52.97
2018-01-11T21:36:51.505Z,63.63
2018-01-11T21:39:19.817Z,74.67
2018-01-11T21:41:47.315Z,56.60
2018-01-11T21:44:14.802Z,57.63
2018-01-11T21:46:43.193Z,65.70
2018-01-11T21:49:11.455Z,63.33
2018-01-11T21:51:39.714Z,58.47
2018-01-11T21:54:07.223Z,53.70
2018-01-11T21:56:34.728Z,54.37
2018-01-11T21:59:02.255Z,58.70
2018-01-11T22:01:29.754Z,69.83
2018-01-11T22:03:57.259Z,58.73
2018-01-11T22:06:24.769Z,63.40
2018-01-11T22:08:52.258Z,59.47
2018-01-11T22:11:19.774Z,62.73
2018-01-11T22:13:47.269Z,58.00
2018-01-11T22:16:15.521Z,53.70
2018-01-11T22:18:43.030Z,62.53
2018-01-11T22:21:10.528Z,55.00
2018-01-11T22:23:38.057Z,60.20
2018-01-11T22:26:05.545Z,64.00
2018-01-11T22:28:33.063Z,58.40
2018-01-11T22:31:00.675Z,64.10
2018-01-11T22:33:28.166Z,59.90
2018-01-11T22:35:55.726Z,56.73
2018-01-11T22:38:23.225Z,56.50
2018-01-11T22:40:50.723Z,62.50
2018-01-11T22:43:18.997Z,70.97
2018-01-11T22:45:47.277Z,59.03
2018-01-11T22:48:15.561Z,63.33
2018-01-11T22:50:43.818Z,63.77
2018-01-11T22:53:11.330Z,62.00
2018-01-11T22:55:38.866Z,69.67
2018-01-11T22:58:06.356Z,63.73
2018-01-11T23:00:34.324Z,70.77
2018-01-11T23:03:01.814Z,63.93
2018-01-11T23:05:29.305Z,66.43
2018-01-11T23:07:57.596Z,70.70
2018-01-11T23:10:25.096Z,69.33
2018-01-11T23:12:52.610Z,64.40
2018-01-11T23:15:20.098Z,66.00
2018-01-11T23:17:47.590Z,66.47
2018-01-11T23:20:15.101Z,70.37
2018-01-11T23:22:42.589Z,65.70
2018-01-11T23:25:11.005Z,69.17
2018-01-11T23:27:39.262Z,69.83
2018-01-11T23:30:06.754Z,72.80
2018-01-11T23:32:34.269Z,65.40
2018-01-11T23:35:01.757Z,70.37
2018-01-11T23:37:30.041Z,66.70
2018-01-11T23:39:58.319Z,65.93
2018-01-11T23:42:26.581Z,66.87
2018-01-11T23:44:54.865Z,68.73
2018-01-11T23:47:23.122Z,73.00
2018-01-11T23:49:50.633Z,64.77
2018-01-11T23:52:18.130Z,64.03
2018-01-11T23:54:45.622Z,71.00
2018-01-11T23:57:13.910Z,72.60
2018-01-11T23:59:42.171Z,75.20
